sensor_id;sensor_type;location;lat;lon;timestamp;temperature;humidity
20487;DHT22;10402;49.012;8.370;2023-04-12T00:00:59;12.60;58.20
20487;DHT22;10402;49.012;8.370;2023-04-12T00:03:25;12.60;58.40
20487;DHT22;10402;49.012;8.370;2023-04-12T00:05:51;12.60;58.70
20487;DHT22;10402;49.012;8.370;2023-04-12T00:08:19;12.50;58.80
20487;DHT22;10402;49.012;8.370;2023-04-12T00:10:50;12.50;59.00
20487;DHT22;10402;49.012;8.370;2023-04-12T00:13:16;12.40;59.30
20487;DHT22;10402;49.012;8.370;2023-04-12T00:15:42;12.30;59.60
20487;DHT22;10402;49.012;8.370;2023-04-12T00:18:07;12.30;60.00
20487;DHT22;10402;49.012;8.370;2023-04-12T00:20:33;12.20;60.60
20487;DHT22;10402;49.012;8.370;2023-04-12T00:22:59;12.10;61.20
20487;DHT22;10402;49.012;8.370;2023-04-12T00:25:25;12.10;61.70
20487;DHT22;10402;49.012;8.370;2023-04-12T00:27:50;12.00;62.10
20487;DHT22;10402;49.012;8.370;2023-04-12T00:30:16;11.90;62.60
20487;DHT22;10402;49.012;8.370;2023-04-12T00:32:42;11.90;63.00
20487;DHT22;10402;49.012;8.370;2023-04-12T00:35:07;11.90;63.40
20487;DHT22;10402;49.012;8.370;2023-04-12T00:37:33;11.90;63.90
20487;DHT22;10402;49.012;8.370;2023-04-12T00:40:01;11.80;63.90
20487;DHT22;10402;49.012;8.370;2023-04-12T00:42:26;11.80;64.30
20487;DHT22;10402;49.012;8.370;2023-04-12T00:44:52;11.70;64.70
20487;DHT22;10402;49.012;8.370;2023-04-12T00:47:18;11.60;65.10
20487;DHT22;10402;49.012;8.370;2023-04-12T00:49:44;11.50;65.50
20487;DHT22;10402;49.012;8.370;2023-04-12T00:52:12;11.40;65.90
20487;DHT22;10402;49.012;8.370;2023-04-12T00:54:40;11.40;66.40
20487;DHT22;10402;49.012;8.370;2023-04-12T00:57:06;11.30;66.70
20487;DHT22;10402;49.012;8.370;2023-04-12T00:59:32;11.30;66.90
20487;DHT22;10402;49.012;8.370;2023-04-12T01:01:58;11.30;67.00
20487;DHT22;10402;49.012;8.370;2023-04-12T01:04:25;11.30;67.30
20487;DHT22;10402;49.012;8.370;2023-04-12T01:13:38;11.30;68.20
20487;DHT22;10402;49.012;8.370;2023-04-12T01:16:22;11.30;68.30
20487;DHT22;10402;49.012;8.370;2023-04-12T01:18:53;11.20;68.60
20487;DHT22;10402;49.012;8.370;2023-04-12T01:21:38;11.20;68.90
20487;DHT22;10402;49.012;8.370;2023-04-12T01:26:46;11.20;69.20
20487;DHT22;10402;49.012;8.370;2023-04-12T01:29:19;11.20;69.50
20487;DHT22;10402;49.012;8.370;2023-04-12T01:31:52;11.20;69.60
20487;DHT22;10402;49.012;8.370;2023-04-12T01:34:19;11.20;69.80
20487;DHT22;10402;49.012;8.370;2023-04-12T01:36:46;11.20;69.90
20487;DHT22;10402;49.012;8.370;2023-04-12T01:39:12;11.10;70.00
20487;DHT22;10402;49.012;8.370;2023-04-12T01:41:39;11.10;70.30
20487;DHT22;10402;49.012;8.370;2023-04-12T01:44:06;11.00;70.70
20487;DHT22;10402;49.012;8.370;2023-04-12T01:46:32;11.00;70.80
20487;DHT22;10402;49.012;8.370;2023-04-12T01:48:59;11.00;71.00
20487;DHT22;10402;49.012;8.370;2023-04-12T01:51:45;11.00;71.10
20487;DHT22;10402;49.012;8.370;2023-04-12T01:54:19;11.10;71.40
20487;DHT22;10402;49.012;8.370;2023-04-12T01:56:50;11.00;71.40
20487;DHT22;10402;49.012;8.370;2023-04-12T01:59:18;11.00;71.60
20487;DHT22;10402;49.012;8.370;2023-04-12T02:01:45;11.10;71.70
20487;DHT22;10402;49.012;8.370;2023-04-12T02:04:11;11.10;71.70
20487;DHT22;10402;49.012;8.370;2023-04-12T02:06:40;11.10;71.80
20487;DHT22;10402;49.012;8.370;2023-04-12T02:09:06;11.00;71.80
20487;DHT22;10402;49.012;8.370;2023-04-12T02:11:32;11.00;71.80
20487;DHT22;10402;49.012;8.370;2023-04-12T02:13:57;11.00;71.90
20487;DHT22;10402;49.012;8.370;2023-04-12T02:16:23;11.10;72.00
20487;DHT22;10402;49.012;8.370;2023-04-12T02:18:49;11.00;72.00
20487;DHT22;10402;49.012;8.370;2023-04-12T02:21:16;11.00;72.10
20487;DHT22;10402;49.012;8.370;2023-04-12T02:23:41;11.00;72.30
20487;DHT22;10402;49.012;8.370;2023-04-12T02:26:09;11.00;72.40
20487;DHT22;10402;49.012;8.370;2023-04-12T02:28:36;11.00;72.30
20487;DHT22;10402;49.012;8.370;2023-04-12T02:31:03;11.00;72.40
20487;DHT22;10402;49.012;8.370;2023-04-12T02:33:29;11.00;72.40
20487;DHT22;10402;49.012;8.370;2023-04-12T02:35:55;11.00;72.60
20487;DHT22;10402;49.012;8.370;2023-04-12T02:38:24;11.00;72.70
20487;DHT22;10402;49.012;8.370;2023-04-12T02:40:49;11.00;72.90
20487;DHT22;10402;49.012;8.370;2023-04-12T02:43:15;11.00;72.90
20487;DHT22;10402;49.012;8.370;2023-04-12T02:45:41;11.00;73.00
20487;DHT22;10402;49.012;8.370;2023-04-12T02:48:06;11.00;73.10
20487;DHT22;10402;49.012;8.370;2023-04-12T02:50:32;11.00;73.30
20487;DHT22;10402;49.012;8.370;2023-04-12T02:52:57;11.00;73.40
20487;DHT22;10402;49.012;8.370;2023-04-12T02:55:23;11.00;73.40
20487;DHT22;10402;49.012;8.370;2023-04-12T02:57:50;11.10;73.50
20487;DHT22;10402;49.012;8.370;2023-04-12T03:00:15;11.00;73.60
20487;DHT22;10402;49.012;8.370;2023-04-12T03:02:41;11.00;73.60
20487;DHT22;10402;49.012;8.370;2023-04-12T03:05:07;11.00;73.70
20487;DHT22;10402;49.012;8.370;2023-04-12T03:07:33;11.00;73.80
20487;DHT22;10402;49.012;8.370;2023-04-12T03:10:00;10.90;73.80
20487;DHT22;10402;49.012;8.370;2023-04-12T03:12:26;11.00;74.00
20487;DHT22;10402;49.012;8.370;2023-04-12T03:14:51;11.00;74.10
20487;DHT22;10402;49.012;8.370;2023-04-12T03:17:17;11.00;74.10
20487;DHT22;10402;49.012;8.370;2023-04-12T03:19:42;11.00;74.30
20487;DHT22;10402;49.012;8.370;2023-04-12T03:22:08;11.00;74.30
20487;DHT22;10402;49.012;8.370;2023-04-12T03:24:33;11.00;74.40
20487;DHT22;10402;49.012;8.370;2023-04-12T03:27:03;11.00;74.40
20487;DHT22;10402;49.012;8.370;2023-04-12T03:29:30;11.00;74.60
20487;DHT22;10402;49.012;8.370;2023-04-12T03:31:56;11.00;74.70
20487;DHT22;10402;49.012;8.370;2023-04-12T03:34:24;11.00;74.70
20487;DHT22;10402;49.012;8.370;2023-04-12T03:36:52;10.90;74.60
20487;DHT22;10402;49.012;8.370;2023-04-12T03:39:18;11.00;74.70
20487;DHT22;10402;49.012;8.370;2023-04-12T03:41:43;10.90;74.60
20487;DHT22;10402;49.012;8.370;2023-04-12T03:44:09;10.90;75.10
20487;DHT22;10402;49.012;8.370;2023-04-12T03:46:35;10.90;75.30
20487;DHT22;10402;49.012;8.370;2023-04-12T03:49:00;10.90;75.40
20487;DHT22;10402;49.012;8.370;2023-04-12T03:51:26;10.90;75.60
20487;DHT22;10402;49.012;8.370;2023-04-12T03:53:55;10.90;75.70
20487;DHT22;10402;49.012;8.370;2023-04-12T03:56:20;10.90;75.80
20487;DHT22;10402;49.012;8.370;2023-04-12T03:58:46;10.80;75.80
20487;DHT22;10402;49.012;8.370;2023-04-12T04:01:12;10.90;76.20
20487;DHT22;10402;49.012;8.370;2023-04-12T04:03:39;10.90;76.20
20487;DHT22;10402;49.012;8.370;2023-04-12T04:06:06;10.90;76.20
20487;DHT22;10402;49.012;8.370;2023-04-12T04:08:32;10.80;76.30
20487;DHT22;10402;49.012;8.370;2023-04-12T04:10:59;10.80;76.50
20487;DHT22;10402;49.012;8.370;2023-04-12T04:13:24;10.80;76.80
20487;DHT22;10402;49.012;8.370;2023-04-12T04:15:55;10.70;76.80
20487;DHT22;10402;49.012;8.370;2023-04-12T04:18:23;10.70;77.00
20487;DHT22;10402;49.012;8.370;2023-04-12T04:20:48;10.70;77.20
20487;DHT22;10402;49.012;8.370;2023-04-12T04:23:14;10.70;77.20
20487;DHT22;10402;49.012;8.370;2023-04-12T04:25:39;10.70;77.40
20487;DHT22;10402;49.012;8.370;2023-04-12T04:28:06;10.60;77.40
20487;DHT22;10402;49.012;8.370;2023-04-12T04:30:35;10.60;77.60
20487;DHT22;10402;49.012;8.370;2023-04-12T04:33:04;10.60;77.90
20487;DHT22;10402;49.012;8.370;2023-04-12T04:35:30;10.60;78.00
20487;DHT22;10402;49.012;8.370;2023-04-12T04:37:56;10.60;78.20
20487;DHT22;10402;49.012;8.370;2023-04-12T04:40:22;10.60;78.30
20487;DHT22;10402;49.012;8.370;2023-04-12T04:42:49;10.60;78.30
20487;DHT22;10402;49.012;8.370;2023-04-12T04:45:22;10.60;78.50
20487;DHT22;10402;49.012;8.370;2023-04-12T04:47:54;10.60;78.50
20487;DHT22;10402;49.012;8.370;2023-04-12T04:50:21;10.60;78.60
20487;DHT22;10402;49.012;8.370;2023-04-12T04:52:47;10.60;78.80
20487;DHT22;10402;49.012;8.370;2023-04-12T04:55:13;10.60;78.80
20487;DHT22;10402;49.012;8.370;2023-04-12T04:57:40;10.60;78.90
20487;DHT22;10402;49.012;8.370;2023-04-12T05:00:06;10.60;79.00
20487;DHT22;10402;49.012;8.370;2023-04-12T05:02:35;10.70;79.10
20487;DHT22;10402;49.012;8.370;2023-04-12T05:05:01;10.70;79.20
20487;DHT22;10402;49.012;8.370;2023-04-12T05:07:28;10.60;79.10
20487;DHT22;10402;49.012;8.370;2023-04-12T05:09:54;10.60;79.40
20487;DHT22;10402;49.012;8.370;2023-04-12T05:12:19;10.60;79.60
20487;DHT22;10402;49.012;8.370;2023-04-12T05:14:45;10.60;79.80
20487;DHT22;10402;49.012;8.370;2023-04-12T05:17:11;10.70;79.80
20487;DHT22;10402;49.012;8.370;2023-04-12T05:19:36;10.70;79.90
20487;DHT22;10402;49.012;8.370;2023-04-12T05:22:02;10.70;80.00
20487;DHT22;10402;49.012;8.370;2023-04-12T05:24:27;10.70;80.00
20487;DHT22;10402;49.012;8.370;2023-04-12T05:26:53;10.70;80.00
20487;DHT22;10402;49.012;8.370;2023-04-12T05:29:18;10.70;80.10
20487;DHT22;10402;49.012;8.370;2023-04-12T05:31:44;10.70;80.10
20487;DHT22;10402;49.012;8.370;2023-04-12T05:34:10;10.70;80.20
20487;DHT22;10402;49.012;8.370;2023-04-12T05:36:35;10.70;80.60
20487;DHT22;10402;49.012;8.370;2023-04-12T05:39:01;10.70;80.70
20487;DHT22;10402;49.012;8.370;2023-04-12T05:41:26;10.70;80.80
20487;DHT22;10402;49.012;8.370;2023-04-12T05:43:52;10.80;80.80
20487;DHT22;10402;49.012;8.370;2023-04-12T05:46:17;10.80;81.00
20487;DHT22;10402;49.012;8.370;2023-04-12T05:48:43;10.80;81.00
20487;DHT22;10402;49.012;8.370;2023-04-12T05:51:08;10.80;81.00
20487;DHT22;10402;49.012;8.370;2023-04-12T05:53:34;10.80;81.10
20487;DHT22;10402;49.012;8.370;2023-04-12T05:55:59;10.80;81.20
20487;DHT22;10402;49.012;8.370;2023-04-12T05:58:25;10.80;81.50
20487;DHT22;10402;49.012;8.370;2023-04-12T06:00:51;10.80;81.30
20487;DHT22;10402;49.012;8.370;2023-04-12T06:03:18;10.80;81.30
20487;DHT22;10402;49.012;8.370;2023-04-12T06:05:44;10.80;81.40
20487;DHT22;10402;49.012;8.370;2023-04-12T06:08:09;10.80;81.60
20487;DHT22;10402;49.012;8.370;2023-04-12T06:10:37;10.80;81.90
20487;DHT22;10402;49.012;8.370;2023-04-12T06:13:02;10.80;82.00
20487;DHT22;10402;49.012;8.370;2023-04-12T06:15:28;10.80;82.00
20487;DHT22;10402;49.012;8.370;2023-04-12T06:17:56;10.80;82.10
20487;DHT22;10402;49.012;8.370;2023-04-12T06:20:22;10.90;82.10
20487;DHT22;10402;49.012;8.370;2023-04-12T06:22:49;10.80;82.20
20487;DHT22;10402;49.012;8.370;2023-04-12T06:25:14;10.90;82.60
20487;DHT22;10402;49.012;8.370;2023-04-12T06:27:41;10.90;82.70
20487;DHT22;10402;49.012;8.370;2023-04-12T06:30:07;10.90;82.70
20487;DHT22;10402;49.012;8.370;2023-04-12T06:32:33;11.00;82.80
20487;DHT22;10402;49.012;8.370;2023-04-12T06:34:58;11.00;82.90
20487;DHT22;10402;49.012;8.370;2023-04-12T06:37:24;11.00;82.90
20487;DHT22;10402;49.012;8.370;2023-04-12T06:39:49;11.00;83.00
20487;DHT22;10402;49.012;8.370;2023-04-12T06:42:16;11.00;83.20
20487;DHT22;10402;49.012;8.370;2023-04-12T06:44:41;11.10;83.30
20487;DHT22;10402;49.012;8.370;2023-04-12T06:47:07;11.10;83.10
20487;DHT22;10402;49.012;8.370;2023-04-12T06:49:33;11.10;83.20
20487;DHT22;10402;49.012;8.370;2023-04-12T06:51:59;11.10;83.30
20487;DHT22;10402;49.012;8.370;2023-04-12T06:54:24;11.20;83.50
20487;DHT22;10402;49.012;8.370;2023-04-12T06:56:50;11.20;83.50
20487;DHT22;10402;49.012;8.370;2023-04-12T06:59:15;11.20;83.60
20487;DHT22;10402;49.012;8.370;2023-04-12T07:01:41;11.20;83.80
20487;DHT22;10402;49.012;8.370;2023-04-12T07:04:07;11.20;83.90
20487;DHT22;10402;49.012;8.370;2023-04-12T07:06:33;11.30;84.00
20487;DHT22;10402;49.012;8.370;2023-04-12T07:08:58;11.30;83.80
20487;DHT22;10402;49.012;8.370;2023-04-12T07:11:24;11.40;83.70
20487;DHT22;10402;49.012;8.370;2023-04-12T07:13:50;11.40;83.80
20487;DHT22;10402;49.012;8.370;2023-04-12T07:16:16;11.40;83.90
20487;DHT22;10402;49.012;8.370;2023-04-12T07:18:42;11.40;84.10
20487;DHT22;10402;49.012;8.370;2023-04-12T07:21:07;11.50;84.30
20487;DHT22;10402;49.012;8.370;2023-04-12T07:23:33;11.50;84.30
20487;DHT22;10402;49.012;8.370;2023-04-12T07:25:59;11.50;84.30
20487;DHT22;10402;49.012;8.370;2023-04-12T07:28:25;11.60;84.40
20487;DHT22;10402;49.012;8.370;2023-04-12T07:30:50;11.60;84.40
20487;DHT22;10402;49.012;8.370;2023-04-12T07:33:16;11.50;84.40
20487;DHT22;10402;49.012;8.370;2023-04-12T07:35:41;11.50;84.60
20487;DHT22;10402;49.012;8.370;2023-04-12T07:38:07;11.50;84.90
20487;DHT22;10402;49.012;8.370;2023-04-12T07:40:32;11.40;85.00
20487;DHT22;10402;49.012;8.370;2023-04-12T07:42:58;11.50;85.40
20487;DHT22;10402;49.012;8.370;2023-04-12T07:45:23;11.50;85.40
20487;DHT22;10402;49.012;8.370;2023-04-12T07:47:49;11.50;85.50
20487;DHT22;10402;49.012;8.370;2023-04-12T07:50:15;11.60;85.70
20487;DHT22;10402;49.012;8.370;2023-04-12T07:52:40;11.60;86.50
20487;DHT22;10402;49.012;8.370;2023-04-12T07:55:06;11.60;85.90
20487;DHT22;10402;49.012;8.370;2023-04-12T07:57:32;11.70;85.90
20487;DHT22;10402;49.012;8.370;2023-04-12T07:59:58;11.70;85.90
20487;DHT22;10402;49.012;8.370;2023-04-12T08:02:23;11.80;86.10
20487;DHT22;10402;49.012;8.370;2023-04-12T08:04:50;11.80;86.00
20487;DHT22;10402;49.012;8.370;2023-04-12T08:07:16;11.90;86.00
20487;DHT22;10402;49.012;8.370;2023-04-12T08:09:41;11.90;85.90
20487;DHT22;10402;49.012;8.370;2023-04-12T08:12:07;12.00;86.10
20487;DHT22;10402;49.012;8.370;2023-04-12T08:14:33;12.00;86.10
20487;DHT22;10402;49.012;8.370;2023-04-12T08:16:58;12.00;86.10
20487;DHT22;10402;49.012;8.370;2023-04-12T08:19:24;12.00;86.30
20487;DHT22;10402;49.012;8.370;2023-04-12T08:21:49;12.00;87.10
20487;DHT22;10402;49.012;8.370;2023-04-12T08:24:15;12.10;86.30
20487;DHT22;10402;49.012;8.370;2023-04-12T08:26:40;12.20;86.30
20487;DHT22;10402;49.012;8.370;2023-04-12T08:29:06;12.30;87.20
20487;DHT22;10402;49.012;8.370;2023-04-12T08:31:32;12.30;86.30
20487;DHT22;10402;49.012;8.370;2023-04-12T08:33:57;12.40;86.20
20487;DHT22;10402;49.012;8.370;2023-04-12T08:36:24;12.50;86.20
20487;DHT22;10402;49.012;8.370;2023-04-12T08:38:51;12.50;86.30
20487;DHT22;10402;49.012;8.370;2023-04-12T08:41:20;12.50;86.30
20487;DHT22;10402;49.012;8.370;2023-04-12T08:43:46;12.60;86.60
20487;DHT22;10402;49.012;8.370;2023-04-12T08:46:13;12.60;86.50
20487;DHT22;10402;49.012;8.370;2023-04-12T08:48:44;12.60;86.60
20487;DHT22;10402;49.012;8.370;2023-04-12T08:51:13;12.60;86.60
20487;DHT22;10402;49.012;8.370;2023-04-12T08:53:40;12.60;86.50
20487;DHT22;10402;49.012;8.370;2023-04-12T08:56:08;12.70;86.70
20487;DHT22;10402;49.012;8.370;2023-04-12T08:58:39;12.70;86.70
20487;DHT22;10402;49.012;8.370;2023-04-12T09:01:13;12.70;86.70
20487;DHT22;10402;49.012;8.370;2023-04-12T09:03:39;12.80;86.90
20487;DHT22;10402;49.012;8.370;2023-04-12T09:06:05;12.70;86.90
20487;DHT22;10402;49.012;8.370;2023-04-12T09:08:31;12.70;86.80
20487;DHT22;10402;49.012;8.370;2023-04-12T09:10:57;12.70;86.90
20487;DHT22;10402;49.012;8.370;2023-04-12T09:13:35;12.70;87.00
20487;DHT22;10402;49.012;8.370;2023-04-12T09:16:03;12.70;87.10
20487;DHT22;10402;49.012;8.370;2023-04-12T09:18:29;12.70;87.90
20487;DHT22;10402;49.012;8.370;2023-04-12T09:21:08;12.70;87.10
20487;DHT22;10402;49.012;8.370;2023-04-12T09:23:36;12.80;87.20
20487;DHT22;10402;49.012;8.370;2023-04-12T09:26:01;12.80;87.20
20487;DHT22;10402;49.012;8.370;2023-04-12T09:37:56;12.90;87.10
20487;DHT22;10402;49.012;8.370;2023-04-12T09:47:06;12.90;87.10
20487;DHT22;10402;49.012;8.370;2023-04-12T09:52:02;13.00;87.30
20487;DHT22;10402;49.012;8.370;2023-04-12T09:54:27;13.00;87.30
20487;DHT22;10402;49.012;8.370;2023-04-12T09:56:53;13.10;87.30
20487;DHT22;10402;49.012;8.370;2023-04-12T09:59:21;13.10;87.20
20487;DHT22;10402;49.012;8.370;2023-04-12T10:01:51;13.10;87.00
20487;DHT22;10402;49.012;8.370;2023-04-12T10:04:17;13.20;87.00
20487;DHT22;10402;49.012;8.370;2023-04-12T10:06:44;13.20;87.00
20487;DHT22;10402;49.012;8.370;2023-04-12T10:09:11;13.20;87.00
20487;DHT22;10402;49.012;8.370;2023-04-12T10:11:39;13.30;87.10
20487;DHT22;10402;49.012;8.370;2023-04-12T10:14:07;13.30;87.00
20487;DHT22;10402;49.012;8.370;2023-04-12T10:16:34;13.40;87.00
20487;DHT22;10402;49.012;8.370;2023-04-12T10:19:01;13.40;86.90
20487;DHT22;10402;49.012;8.370;2023-04-12T10:21:28;13.40;87.00
20487;DHT22;10402;49.012;8.370;2023-04-12T10:23:54;13.40;87.10
20487;DHT22;10402;49.012;8.370;2023-04-12T10:26:19;13.40;87.10
20487;DHT22;10402;49.012;8.370;2023-04-12T10:28:45;13.40;87.10
20487;DHT22;10402;49.012;8.370;2023-04-12T10:31:31;13.40;87.10
20487;DHT22;10402;49.012;8.370;2023-04-12T10:34:00;13.50;87.10
20487;DHT22;10402;49.012;8.370;2023-04-12T10:36:51;13.50;87.00
20487;DHT22;10402;49.012;8.370;2023-04-12T10:39:37;13.60;87.10
20487;DHT22;10402;49.012;8.370;2023-04-12T10:42:25;13.60;87.10
20487;DHT22;10402;49.012;8.370;2023-04-12T10:44:53;13.60;87.10
20487;DHT22;10402;49.012;8.370;2023-04-12T10:55:41;13.70;86.80
20487;DHT22;10402;49.012;8.370;2023-04-12T10:58:07;13.80;86.80
20487;DHT22;10402;49.012;8.370;2023-04-12T11:03:26;14.10;86.90
20487;DHT22;10402;49.012;8.370;2023-04-12T11:06:03;14.10;86.80
20487;DHT22;10402;49.012;8.370;2023-04-12T11:08:30;14.10;86.50
20487;DHT22;10402;49.012;8.370;2023-04-12T11:11:00;14.10;86.50
20487;DHT22;10402;49.012;8.370;2023-04-12T11:13:28;14.10;86.50
20487;DHT22;10402;49.012;8.370;2023-04-12T11:15:54;14.10;86.50
20487;DHT22;10402;49.012;8.370;2023-04-12T11:18:24;14.10;86.50
20487;DHT22;10402;49.012;8.370;2023-04-12T11:20:51;14.10;86.50
20487;DHT22;10402;49.012;8.370;2023-04-12T11:23:17;14.20;86.30
20487;DHT22;10402;49.012;8.370;2023-04-12T11:25:48;14.20;86.10
20487;DHT22;10402;49.012;8.370;2023-04-12T11:28:16;14.30;86.00
20487;DHT22;10402;49.012;8.370;2023-04-12T11:30:51;14.30;85.80
20487;DHT22;10402;49.012;8.370;2023-04-12T11:33:37;14.50;85.60
20487;DHT22;10402;49.012;8.370;2023-04-12T11:36:07;14.50;85.20
20487;DHT22;10402;49.012;8.370;2023-04-12T11:38:35;14.60;85.00
20487;DHT22;10402;49.012;8.370;2023-04-12T11:41:03;14.50;84.70
20487;DHT22;10402;49.012;8.370;2023-04-12T11:43:30;14.50;84.60
20487;DHT22;10402;49.012;8.370;2023-04-12T11:45:57;14.50;84.50
20487;DHT22;10402;49.012;8.370;2023-04-12T11:48:24;14.50;84.40
20487;DHT22;10402;49.012;8.370;2023-04-12T11:50:50;14.50;84.30
20487;DHT22;10402;49.012;8.370;2023-04-12T11:53:16;14.50;84.10
20487;DHT22;10402;49.012;8.370;2023-04-12T11:55:47;14.50;84.10
20487;DHT22;10402;49.012;8.370;2023-04-12T11:58:13;14.60;84.20
20487;DHT22;10402;49.012;8.370;2023-04-12T12:00:40;14.60;83.80
20487;DHT22;10402;49.012;8.370;2023-04-12T12:03:06;14.70;83.70
20487;DHT22;10402;49.012;8.370;2023-04-12T12:05:32;14.70;83.50
20487;DHT22;10402;49.012;8.370;2023-04-12T12:08:01;14.80;83.20
20487;DHT22;10402;49.012;8.370;2023-04-12T12:10:32;14.80;83.20
20487;DHT22;10402;49.012;8.370;2023-04-12T12:12:59;14.80;82.70
20487;DHT22;10402;49.012;8.370;2023-04-12T12:15:29;14.90;82.60
20487;DHT22;10402;49.012;8.370;2023-04-12T12:17:55;14.90;82.30
20487;DHT22;10402;49.012;8.370;2023-04-12T12:20:21;14.90;82.10
20487;DHT22;10402;49.012;8.370;2023-04-12T12:22:48;14.80;81.90
20487;DHT22;10402;49.012;8.370;2023-04-12T12:25:16;14.90;81.90
20487;DHT22;10402;49.012;8.370;2023-04-12T12:27:42;14.90;81.80
20487;DHT22;10402;49.012;8.370;2023-04-12T12:30:16;14.90;81.70
20487;DHT22;10402;49.012;8.370;2023-04-12T12:32:42;14.90;81.50
20487;DHT22;10402;49.012;8.370;2023-04-12T12:35:08;14.90;81.40
20487;DHT22;10402;49.012;8.370;2023-04-12T12:37:34;14.90;81.30
20487;DHT22;10402;49.012;8.370;2023-04-12T12:40:10;15.00;81.20
20487;DHT22;10402;49.012;8.370;2023-04-12T12:42:59;15.10;81.40
20487;DHT22;10402;49.012;8.370;2023-04-12T12:45:26;15.10;80.70
20487;DHT22;10402;49.012;8.370;2023-04-12T12:47:57;15.20;80.40
20487;DHT22;10402;49.012;8.370;2023-04-12T12:50:26;15.20;80.10
20487;DHT22;10402;49.012;8.370;2023-04-12T12:52:53;15.20;79.70
20487;DHT22;10402;49.012;8.370;2023-04-12T12:55:20;15.20;79.60
20487;DHT22;10402;49.012;8.370;2023-04-12T12:57:47;15.20;79.50
20487;DHT22;10402;49.012;8.370;2023-04-12T13:00:14;15.20;79.10
20487;DHT22;10402;49.012;8.370;2023-04-12T13:02:43;15.20;79.20
20487;DHT22;10402;49.012;8.370;2023-04-12T13:05:09;15.20;79.20
20487;DHT22;10402;49.012;8.370;2023-04-12T13:07:35;15.30;79.20
20487;DHT22;10402;49.012;8.370;2023-04-12T13:10:01;15.20;79.20
20487;DHT22;10402;49.012;8.370;2023-04-12T13:12:26;15.20;79.10
20487;DHT22;10402;49.012;8.370;2023-04-12T13:14:52;15.20;79.10
20487;DHT22;10402;49.012;8.370;2023-04-12T13:17:18;15.30;79.20
20487;DHT22;10402;49.012;8.370;2023-04-12T13:19:45;15.30;79.20
20487;DHT22;10402;49.012;8.370;2023-04-12T13:22:11;15.30;79.20
20487;DHT22;10402;49.012;8.370;2023-04-12T13:24:37;15.40;78.90
20487;DHT22;10402;49.012;8.370;2023-04-12T13:27:03;15.40;78.80
20487;DHT22;10402;49.012;8.370;2023-04-12T13:29:28;15.50;78.80
20487;DHT22;10402;49.012;8.370;2023-04-12T13:31:54;15.50;78.40
20487;DHT22;10402;49.012;8.370;2023-04-12T13:34:20;15.60;78.40
20487;DHT22;10402;49.012;8.370;2023-04-12T13:36:45;15.70;78.20
20487;DHT22;10402;49.012;8.370;2023-04-12T13:39:11;15.80;78.00
20487;DHT22;10402;49.012;8.370;2023-04-12T13:41:36;15.90;77.80
20487;DHT22;10402;49.012;8.370;2023-04-12T13:44:02;15.90;77.50
20487;DHT22;10402;49.012;8.370;2023-04-12T13:46:29;16.00;77.40
20487;DHT22;10402;49.012;8.370;2023-04-12T13:48:55;16.00;77.20
20487;DHT22;10402;49.012;8.370;2023-04-12T13:51:20;15.90;77.00
20487;DHT22;10402;49.012;8.370;2023-04-12T13:53:46;15.90;77.10
20487;DHT22;10402;49.012;8.370;2023-04-12T13:56:12;15.90;77.20
20487;DHT22;10402;49.012;8.370;2023-04-12T13:58:37;15.80;77.30
20487;DHT22;10402;49.012;8.370;2023-04-12T14:01:06;15.70;77.40
20487;DHT22;10402;49.012;8.370;2023-04-12T14:03:32;15.70;77.70
20487;DHT22;10402;49.012;8.370;2023-04-12T14:05:58;15.60;77.80
20487;DHT22;10402;49.012;8.370;2023-04-12T14:08:25;15.50;78.30
20487;DHT22;10402;49.012;8.370;2023-04-12T14:10:52;15.40;78.80
20487;DHT22;10402;49.012;8.370;2023-04-12T14:13:20;15.40;79.40
20487;DHT22;10402;49.012;8.370;2023-04-12T14:15:46;15.20;79.80
20487;DHT22;10402;49.012;8.370;2023-04-12T14:18:11;15.20;80.30
20487;DHT22;10402;49.012;8.370;2023-04-12T14:20:37;15.00;80.60
20487;DHT22;10402;49.012;8.370;2023-04-12T14:23:02;15.00;81.40
20487;DHT22;10402;49.012;8.370;2023-04-12T14:25:28;14.90;81.70
20487;DHT22;10402;49.012;8.370;2023-04-12T14:27:54;14.70;82.40
20487;DHT22;10402;49.012;8.370;2023-04-12T14:30:19;14.60;83.10
20487;DHT22;10402;49.012;8.370;2023-04-12T14:32:45;14.20;82.70
20487;DHT22;10402;49.012;8.370;2023-04-12T14:35:11;13.90;83.40
20487;DHT22;10402;49.012;8.370;2023-04-12T14:37:37;13.60;83.60
20487;DHT22;10402;49.012;8.370;2023-04-12T14:40:03;13.50;84.10
20487;DHT22;10402;49.012;8.370;2023-04-12T14:42:32;13.40;84.40
20487;DHT22;10402;49.012;8.370;2023-04-12T14:44:59;13.40;84.80
20487;DHT22;10402;49.012;8.370;2023-04-12T14:47:25;13.40;84.80
20487;DHT22;10402;49.012;8.370;2023-04-12T14:49:50;13.40;84.80
20487;DHT22;10402;49.012;8.370;2023-04-12T14:52:16;13.40;84.80
20487;DHT22;10402;49.012;8.370;2023-04-12T14:54:43;13.40;84.80
20487;DHT22;10402;49.012;8.370;2023-04-12T14:57:08;13.30;84.70
20487;DHT22;10402;49.012;8.370;2023-04-12T14:59:33;13.30;84.80
20487;DHT22;10402;49.012;8.370;2023-04-12T15:01:59;13.20;85.10
20487;DHT22;10402;49.012;8.370;2023-04-12T15:04:25;13.30;85.40
20487;DHT22;10402;49.012;8.370;2023-04-12T15:06:50;13.40;85.40
20487;DHT22;10402;49.012;8.370;2023-04-12T15:09:16;13.50;85.40
20487;DHT22;10402;49.012;8.370;2023-04-12T15:11:42;13.60;85.50
20487;DHT22;10402;49.012;8.370;2023-04-12T15:14:12;13.60;85.50
20487;DHT22;10402;49.012;8.370;2023-04-12T15:16:43;13.70;85.70
20487;DHT22;10402;49.012;8.370;2023-04-12T15:19:13;13.70;85.80
20487;DHT22;10402;49.012;8.370;2023-04-12T15:21:39;13.80;85.90
20487;DHT22;10402;49.012;8.370;2023-04-12T15:24:04;13.80;85.90
20487;DHT22;10402;49.012;8.370;2023-04-12T15:26:30;13.90;86.00
20487;DHT22;10402;49.012;8.370;2023-04-12T15:28:56;13.90;86.60
20487;DHT22;10402;49.012;8.370;2023-04-12T15:31:21;13.90;85.90
20487;DHT22;10402;49.012;8.370;2023-04-12T15:33:47;13.90;85.90
20487;DHT22;10402;49.012;8.370;2023-04-12T15:36:15;13.90;85.90
20487;DHT22;10402;49.012;8.370;2023-04-12T15:38:41;14.00;86.00
20487;DHT22;10402;49.012;8.370;2023-04-12T15:41:07;13.90;85.90
20487;DHT22;10402;49.012;8.370;2023-04-12T15:43:33;13.90;86.00
20487;DHT22;10402;49.012;8.370;2023-04-12T15:45:58;13.90;85.90
20487;DHT22;10402;49.012;8.370;2023-04-12T15:48:25;13.80;86.10
20487;DHT22;10402;49.012;8.370;2023-04-12T15:50:53;13.90;86.20
20487;DHT22;10402;49.012;8.370;2023-04-12T15:53:22;13.80;86.10
20487;DHT22;10402;49.012;8.370;2023-04-12T15:55:48;13.80;86.10
20487;DHT22;10402;49.012;8.370;2023-04-12T15:58:22;13.80;86.10
20487;DHT22;10402;49.012;8.370;2023-04-12T16:00:48;13.70;86.10
20487;DHT22;10402;49.012;8.370;2023-04-12T16:03:14;13.70;86.30
20487;DHT22;10402;49.012;8.370;2023-04-12T16:05:45;13.70;86.30
20487;DHT22;10402;49.012;8.370;2023-04-12T16:08:12;13.80;86.60